Time;durP1;ratioP1;P1;durP2;ratioP2;P2;SDS_P1;SDS_P2;PMS_P1;PMS_P2;Temp;Humidity;BMP_temperature;BMP_pressure;BME280_temperature;BME280_humidity;BME280_pressure;Samples;Min_cycle;Max_cycle;Signal;HPM_P1;HPM_P2
2022/09/18 00:00:47;;;;;;;2.33;1.40;;;;;;;;;;5053985;28;20067;-68
2022/09/18 00:03:13;;;;;;;1.73;1.13;;;;;;;;;;5054630;28;20103;-69
2022/09/18 00:05:39;;;;;;;2.38;1.15;;;;;;;;;;5053968;28;20071;-68
2022/09/18 00:08:06;;;;;;;2.60;1.08;;;;;;;;;;5054170;28;20068;-68
2022/09/18 00:10:32;;;;;;;2.97;1.20;;;;;;;;;;5053793;28;20400;-68
2022/09/18 00:12:57;;;;;;;1.98;1.02;;;;;;;;;;5053667;28;20029;-68
2022/09/18 00:15:22;;;;;;;3.20;1.20;;;;;;;;;;5036615;28;20408;-68
2022/09/18 00:17:48;;;;;;;1.42;1.15;;;;;;;;;;5035823;28;20124;-68
2022/09/18 00:20:13;;;;;;;3.13;1.30;;;;;;;;;;5054338;28;20079;-68
2022/09/18 00:22:39;;;;;;;3.88;1.30;;;;;;;;;;5035729;28;20039;-69
2022/09/18 00:25:05;;;;;;;5.10;1.25;;;;;;;;;;5053782;28;20028;-68
2022/09/18 00:27:30;;;;;;;2.92;1.50;;;;;;;;;;5053779;28;20029;-68
2022/09/18 00:29:56;;;;;;;3.83;1.42;;;;;;;;;;5054376;28;20480;-69
2022/09/18 00:32:21;;;;;;;1.63;1.02;;;;;;;;;;5054020;28;20071;-69
2022/09/18 00:34:47;;;;;;;2.13;1.17;;;;;;;;;;5035669;28;20025;-69
2022/09/18 00:37:12;;;;;;;2.15;1.38;;;;;;;;;;5053686;28;20104;-69
2022/09/18 00:39:38;;;;;;;3.67;1.20;;;;;;;;;;5053418;28;20523;-69
2022/09/18 00:42:03;;;;;;;1.85;1.02;;;;;;;;;;5035583;28;20029;-69
2022/09/18 00:44:30;;;;;;;1.67;1.05;;;;;;;;;;5053652;28;20021;-68
2022/09/18 00:47:22;;;;;;;1.52;1.27;;;;;;;;;;5054542;28;20029;-69
2022/09/18 00:49:51;;;;;;;1.38;1.00;;;;;;;;;;5055461;28;20435;-69
2022/09/18 00:52:18;;;;;;;2.65;1.25;;;;;;;;;;5023031;28;20441;-69
2022/09/18 00:54:46;;;;;;;3.35;1.15;;;;;;;;;;5057675;28;20056;-68
2022/09/18 00:57:15;;;;;;;1.40;1.05;;;;;;;;;;5057329;28;20017;-67
2022/09/18 00:59:42;;;;;;;3.65;1.13;;;;;;;;;;5039474;28;20103;-67
2022/09/18 01:02:08;;;;;;;1.30;1.20;;;;;;;;;;5072709;28;20031;-69
2022/09/18 01:04:33;;;;;;;1.60;1.20;;;;;;;;;;5057213;28;20032;-68
2022/09/18 01:07:07;;;;;;;3.95;1.38;;;;;;;;;;5039223;28;20033;-68
2022/09/18 01:09:42;;;;;;;1.90;1.10;;;;;;;;;;5057120;28;20044;-68
2022/09/18 01:12:26;;;;;;;2.85;1.30;;;;;;;;;;5039547;28;20362;-66
2022/09/18 01:15:03;;;;;;;2.00;1.50;;;;;;;;;;5039132;28;20025;-67
2022/09/18 01:17:58;;;;;;;2.35;1.30;;;;;;;;;;5039106;28;20025;-68
2022/09/18 01:20:29;;;;;;;2.58;1.30;;;;;;;;;;5047925;28;20037;-67
2022/09/18 01:23:14;;;;;;;2.90;1.30;;;;;;;;;;5072293;28;20051;-66
2022/09/18 01:25:54;;;;;;;2.47;1.50;;;;;;;;;;5072154;28;20032;-67
2022/09/18 01:28:35;;;;;;;2.22;1.40;;;;;;;;;;5056936;28;20423;-66
2022/09/18 01:31:00;;;;;;;;;;;;;;;;;;5057376;28;20091;-67
2022/09/18 01:33:46;;;;;;;1.90;1.23;;;;;;;;;;5038774;28;20284;-66
2022/09/18 01:36:13;;;;;;;3.72;1.30;;;;;;;;;;5056521;28;20060;-66
2022/09/18 01:38:42;;;;;;;4.13;1.50;;;;;;;;;;5056463;28;20021;-66
2022/09/18 01:41:13;;;;;;;4.05;1.20;;;;;;;;;;5039166;28;20021;-68
2022/09/18 01:43:39;;;;;;;2.05;1.33;;;;;;;;;;5038630;28;20033;-68
2022/09/18 01:46:12;;;;;;;2.75;1.40;;;;;;;;;;5038535;28;20106;-67
2022/09/18 01:48:39;;;;;;;2.40;1.42;;;;;;;;;;5039302;28;20124;-67
2022/09/18 01:51:12;;;;;;;3.20;1.25;;;;;;;;;;5071792;28;20025;-67
2022/09/18 01:53:39;;;;;;;2.15;1.17;;;;;;;;;;5038338;28;20064;-67
2022/09/18 01:56:08;;;;;;;2.28;1.30;;;;;;;;;;5038405;28;20017;-68
2022/09/18 01:58:34;;;;;;;3.53;1.50;;;;;;;;;;5038265;28;20517;-68
2022/09/18 02:01:02;;;;;;;2.53;1.40;;;;;;;;;;5056739;28;20021;-68
2022/09/18 02:03:37;;;;;;;2.67;1.30;;;;;;;;;;5054650;28;20037;-69
2022/09/18 02:06:07;;;;;;;3.47;1.30;;;;;;;;;;5056017;28;20039;-69
2022/09/18 02:08:33;;;;;;;;;;;;;;;;;;5038849;28;20500;-67
2022/09/18 02:11:01;;;;;;;1.88;1.20;;;;;;;;;;5038540;28;20365;-67
2022/09/18 02:13:33;;;;;;;1.83;1.35;;;;;;;;;;5071242;28;20025;-67
2022/09/18 02:16:00;;;;;;;2.60;1.30;;;;;;;;;;5054857;28;20029;-66
2022/09/18 02:18:30;;;;;;;2.60;1.30;;;;;;;;;;5038037;28;20013;-66
2022/09/18 02:20:57;;;;;;;1.92;1.35;;;;;;;;;;5037955;28;20025;-67
2022/09/18 02:23:23;;;;;;;2.47;1.48;;;;;;;;;;5071190;28;20067;-66
2022/09/18 02:25:57;;;;;;;2.60;1.30;;;;;;;;;;5071164;28;20033;-67
2022/09/18 02:28:24;;;;;;;2.28;1.13;;;;;;;;;;5037802;28;20036;-68
2022/09/18 02:30:49;;;;;;;2.35;1.13;;;;;;;;;;5055898;28;20029;-68
2022/09/18 02:33:27;;;;;;;3.72;1.55;;;;;;;;;;5037640;28;20558;-66
2022/09/18 02:36:17;;;;;;;1.95;1.15;;;;;;;;;;5057259;28;20036;-66
2022/09/18 02:38:56;;;;;;;2.10;0.95;;;;;;;;;;5029468;28;20083;-66
2022/09/18 02:41:24;;;;;;;1.88;1.38;;;;;;;;;;5037573;28;20025;-66
2022/09/18 02:44:00;;;;;;;2.67;1.48;;;;;;;;;;5037899;28;20385;-70
2022/09/18 02:46:30;;;;;;;4.45;1.60;;;;;;;;;;5037743;28;20021;-70
2022/09/18 02:49:08;;;;;;;3.85;1.27;;;;;;;;;;5037588;28;20435;-70
2022/09/18 02:51:43;;;;;;;6.13;1.42;;;;;;;;;;5037358;28;20033;-71
2022/09/18 02:54:15;;;;;;;3.28;1.20;;;;;;;;;;5037207;28;20124;-71
2022/09/18 02:56:54;;;;;;;3.22;1.30;;;;;;;;;;5037566;28;20021;-71
2022/09/18 02:59:23;;;;;;;1.83;1.55;;;;;;;;;;5037208;28;20028;-71
2022/09/18 03:01:54;;;;;;;2.97;1.35;;;;;;;;;;5037398;28;20381;-72
2022/09/18 03:04:21;;;;;;;2.35;1.20;;;;;;;;;;5037085;28;20041;-72
2022/09/18 03:07:00;;;;;;;2.72;1.10;;;;;;;;;;5037564;28;20071;-71
2022/09/18 03:09:25;;;;;;;4.15;1.27;;;;;;;;;;5037115;28;20072;-71
2022/09/18 03:11:52;;;;;;;3.30;1.33;;;;;;;;;;5070243;28;20024;-71
2022/09/18 03:14:18;;;;;;;4.38;1.55;;;;;;;;;;5037132;28;20041;-71
2022/09/18 03:16:44;;;;;;;2.03;1.30;;;;;;;;;;5036871;28;20016;-71
2022/09/18 03:19:10;;;;;;;2.85;1.30;;;;;;;;;;5037302;28;20029;-71
2022/09/18 03:21:36;;;;;;;2.70;1.30;;;;;;;;;;5036748;28;20377;-71
2022/09/18 03:24:04;;;;;;;3.58;1.40;;;;;;;;;;5036759;28;20536;-71
2022/09/18 03:26:30;;;;;;;4.03;1.38;;;;;;;;;;5036984;28;20025;-71
2022/09/18 03:28:57;;;;;;;2.10;1.13;;;;;;;;;;5020742;28;20025;-71
2022/09/18 03:31:25;;;;;;;2.80;1.40;;;;;;;;;;5069888;28;20040;-71
2022/09/18 03:33:51;;;;;;;2.38;1.20;;;;;;;;;;5070298;28;20078;-70
2022/09/18 03:36:17;;;;;;;1.70;1.20;;;;;;;;;;5035868;28;20017;-70
2022/09/18 03:38:43;;;;;;;2.33;1.27;;;;;;;;;;5036243;28;20024;-71
2022/09/18 03:41:08;;;;;;;1.65;1.23;;;;;;;;;;5036067;28;20021;-70
2022/09/18 03:43:37;;;;;;;4.65;1.50;;;;;;;;;;5036101;28;20052;-70
2022/09/18 03:46:04;;;;;;;3.17;1.10;;;;;;;;;;5035652;28;20021;-70
2022/09/18 03:48:30;;;;;;;3.35;1.60;;;;;;;;;;5035551;28;20124;-70
2022/09/18 03:50:56;;;;;;;2.67;1.42;;;;;;;;;;5052598;28;20117;-71
2022/09/18 03:53:21;;;;;;;3.08;1.13;;;;;;;;;;5036169;28;20040;-71
2022/09/18 03:56:16;;;;;;;4.97;1.25;;;;;;;;;;5035655;28;20104;-71
2022/09/18 03:59:04;;;;;;;2.75;1.02;;;;;;;;;;5036121;28;20078;-72
2022/09/18 04:01:48;;;;;;;2.33;1.25;;;;;;;;;;5054390;28;20363;-72
2022/09/18 04:04:26;;;;;;;2.40;1.27;;;;;;;;;;5053898;28;20045;-72
2022/09/18 04:07:18;;;;;;;2.13;1.02;;;;;;;;;;5053664;28;20041;-72
2022/09/18 04:10:09;;;;;;;1.45;0.90;;;;;;;;;;5053711;28;20040;-71
2022/09/18 04:12:37;;;;;;;2.45;1.15;;;;;;;;;;5052279;28;20037;-72
2022/09/18 04:15:09;;;;;;;1.60;1.30;;;;;;;;;;5035958;28;20457;-72
2022/09/18 04:17:35;;;;;;;1.63;1.40;;;;;;;;;;5035885;28;20031;-72
2022/09/18 04:20:02;;;;;;;4.45;1.55;;;;;;;;;;5053982;28;20013;-71
2022/09/18 04:22:27;;;;;;;3.10;1.58;;;;;;;;;;5035702;28;20534;-71
2022/09/18 04:24:52;;;;;;;3.00;1.48;;;;;;;;;;5035765;28;20021;-71
2022/09/18 04:27:18;;;;;;;2.22;1.50;;;;;;;;;;5036021;28;20025;-71
2022/09/18 04:29:43;;;;;;;2.25;1.40;;;;;;;;;;5035693;28;20009;-71
2022/09/18 04:32:11;;;;;;;4.60;1.50;;;;;;;;;;5052148;28;20021;-71
2022/09/18 04:34:37;;;;;;;6.85;1.50;;;;;;;;;;5035652;28;20047;-72
2022/09/18 04:37:03;;;;;;;2.88;1.58;;;;;;;;;;5048893;22;20049;-72
2022/09/18 04:39:31;;;;;;;3.08;1.27;;;;;;;;;;5036111;28;20033;-72
2022/09/18 04:41:59;;;;;;;3.83;1.63;;;;;;;;;;5034309;28;20024;-72
2022/09/18 04:44:25;;;;;;;6.00;1.65;;;;;;;;;;5067343;28;20037;-72
2022/09/18 04:46:54;;;;;;;6.35;1.58;;;;;;;;;;5034501;28;20385;-68
2022/09/18 04:49:19;;;;;;;3.05;1.50;;;;;;;;;;5052290;28;20036;-69
2022/09/18 04:51:45;;;;;;;3.67;1.42;;;;;;;;;;5034602;28;20021;-68
2022/09/18 04:54:12;;;;;;;2.28;1.20;;;;;;;;;;5067747;28;20106;-69
2022/09/18 04:56:38;;;;;;;2.65;1.42;;;;;;;;;;5034611;28;20465;-69
2022/09/18 04:59:03;;;;;;;3.25;1.45;;;;;;;;;;5052428;28;20104;-68
2022/09/18 05:01:29;;;;;;;2.47;1.25;;;;;;;;;;5034453;28;20425;-68
2022/09/18 05:03:57;;;;;;;4.47;1.30;;;;;;;;;;5051255;28;20120;-68
2022/09/18 05:06:36;;;;;;;2.00;1.63;;;;;;;;;;5034638;28;20128;-69
2022/09/18 05:09:02;;;;;;;4.63;1.63;;;;;;;;;;5069648;28;20481;-68
2022/09/18 05:11:28;;;;;;;5.88;1.58;;;;;;;;;;5036594;28;20028;-69
2022/09/18 05:13:55;;;;;;;2.15;1.48;;;;;;;;;;5052545;28;20032;-69
2022/09/18 05:16:24;;;;;;;3.72;1.15;;;;;;;;;;5034484;28;20032;-68
2022/09/18 05:19:09;;;;;;;3.17;1.48;;;;;;;;;;5052112;28;20409;-68
2022/09/18 05:21:35;;;;;;;3.42;1.40;;;;;;;;;;5067549;28;20032;-70
2022/09/18 05:24:03;;;;;;;2.80;1.30;;;;;;;;;;5033807;28;20465;-69
2022/09/18 05:26:30;;;;;;;3.45;1.38;;;;;;;;;;5067330;28;20029;-68
2022/09/18 05:28:57;;;;;;;1.70;1.50;;;;;;;;;;5034018;28;20083;-69
2022/09/18 05:31:22;;;;;;;1.80;1.40;;;;;;;;;;5051891;28;20500;-69
2022/09/18 05:33:48;;;;;;;2.63;1.60;;;;;;;;;;5036229;28;20025;-69
2022/09/18 05:36:14;;;;;;;1.60;1.50;;;;;;;;;;5037563;28;20374;-69
2022/09/18 05:38:39;;;;;;;2.90;1.92;;;;;;;;;;5070963;28;20033;-69
2022/09/18 05:41:07;;;;;;;3.72;1.55;;;;;;;;;;5021499;28;20028;-69
2022/09/18 05:43:33;;;;;;;2.75;1.33;;;;;;;;;;5070333;28;20021;-69
2022/09/18 05:45:59;;;;;;;1.50;1.30;;;;;;;;;;5037610;28;20530;-69
2022/09/18 05:48:35;;;;;;;2.75;1.65;;;;;;;;;;5037307;28;20060;-69
2022/09/18 05:51:00;;;;;;;2.25;1.77;;;;;;;;;;5053291;28;20056;-69
2022/09/18 05:53:27;;;;;;;3.30;1.70;;;;;;;;;;5035923;28;20048;-69
2022/09/18 05:56:15;;;;;;;3.15;1.80;;;;;;;;;;5070274;28;20476;-69
2022/09/18 05:58:42;;;;;;;3.08;1.95;;;;;;;;;;5071161;28;20075;-69
2022/09/18 06:01:08;;;;;;;1.60;1.50;;;;;;;;;;5036202;28;20021;-69
2022/09/18 06:03:56;;;;;;;1.67;1.48;;;;;;;;;;5054812;28;20025;-69
2022/09/18 06:06:22;;;;;;;2.55;1.60;;;;;;;;;;5037220;28;20037;-69
2022/09/18 06:08:48;;;;;;;1.92;1.50;;;;;;;;;;5037155;28;20446;-69
2022/09/18 06:11:14;;;;;;;2.00;1.60;;;;;;;;;;5036983;28;20029;-69
2022/09/18 06:13:39;;;;;;;3.85;2.13;;;;;;;;;;5036618;28;20020;-69
2022/09/18 06:16:04;;;;;;;3.00;2.13;;;;;;;;;;5036752;28;20032;-69
2022/09/18 06:18:50;;;;;;;4.20;2.38;;;;;;;;;;5054276;28;20044;-69
2022/09/18 06:21:15;;;;;;;2.72;2.08;;;;;;;;;;5036730;28;20553;-68
2022/09/18 06:23:42;;;;;;;3.55;2.70;;;;;;;;;;5036801;28;20021;-69
2022/09/18 06:26:17;;;;;;;3.40;3.10;;;;;;;;;;5054211;28;20087;-68
2022/09/18 06:28:45;;;;;;;4.72;2.90;;;;;;;;;;5036523;28;20115;-68
2022/09/18 06:31:10;;;;;;;5.63;3.17;;;;;;;;;;5020028;28;20013;-69
2022/09/18 06:33:55;;;;;;;5.43;3.28;;;;;;;;;;5036567;28;20029;-69
2022/09/18 06:36:22;;;;;;;5.78;3.45;;;;;;;;;;5036481;28;20497;-69
2022/09/18 06:39:03;;;;;;;6.85;3.72;;;;;;;;;;5036349;28;20500;-69
2022/09/18 06:41:28;;;;;;;6.22;3.35;;;;;;;;;;5036334;28;20029;-69
2022/09/18 06:43:54;;;;;;;7.18;4.15;;;;;;;;;;5035809;28;20040;-69
2022/09/18 06:46:49;;;;;;;7.97;4.72;;;;;;;;;;5045062;28;20393;-68
2022/09/18 06:49:23;;;;;;;7.07;4.35;;;;;;;;;;5036411;28;20111;-68
2022/09/18 06:51:48;;;;;;;4.65;3.95;;;;;;;;;;5036063;28;20552;-69
2022/09/18 06:54:15;;;;;;;5.15;4.15;;;;;;;;;;5036175;28;20025;-69
2022/09/18 06:56:41;;;;;;;3.92;2.95;;;;;;;;;;5036107;28;20029;-69
2022/09/18 06:59:08;;;;;;;4.80;3.40;;;;;;;;;;5036059;28;20028;-69
2022/09/18 07:01:35;;;;;;;4.60;3.63;;;;;;;;;;5036053;28;20032;-69
2022/09/18 07:04:08;;;;;;;7.20;3.45;;;;;;;;;;5035704;28;20538;-69
2022/09/18 07:06:38;;;;;;;6.45;3.58;;;;;;;;;;5053775;28;20033;-69
2022/09/18 07:09:04;;;;;;;4.15;3.60;;;;;;;;;;5035902;28;20090;-69
2022/09/18 07:11:52;;;;;;;5.45;3.78;;;;;;;;;;5047956;28;20029;-68
2022/09/18 07:14:21;;;;;;;4.70;3.72;;;;;;;;;;5036012;28;20036;-69
2022/09/18 07:16:48;;;;;;;6.03;3.88;;;;;;;;;;5035721;28;20020;-69
2022/09/18 07:19:15;;;;;;;4.63;3.92;;;;;;;;;;5035235;28;20060;-69
2022/09/18 07:21:40;;;;;;;7.05;4.35;;;;;;;;;;5053531;28;20055;-69
2022/09/18 07:24:07;;;;;;;5.80;4.40;;;;;;;;;;5035538;28;20036;-69
2022/09/18 07:26:33;;;;;;;5.30;4.55;;;;;;;;;;5035719;28;20314;-68
2022/09/18 07:29:00;;;;;;;6.72;4.47;;;;;;;;;;5035513;28;20439;-68
2022/09/18 07:31:33;;;;;;;4.70;3.88;;;;;;;;;;5035217;28;20021;-72
2022/09/18 07:34:02;;;;;;;6.40;5.43;;;;;;;;;;5035182;28;20056;-73
2022/09/18 07:36:28;;;;;;;3.40;2.85;;;;;;;;;;5035399;28;20469;-73
2022/09/18 07:38:53;;;;;;;2.28;2.08;;;;;;;;;;5035295;28;20040;-72
2022/09/18 07:41:22;;;;;;;3.50;2.25;;;;;;;;;;5035276;28;20030;-73
2022/09/18 07:43:48;;;;;;;3.28;2.80;;;;;;;;;;5034969;28;20295;-73
2022/09/18 07:46:14;;;;;;;4.50;4.00;;;;;;;;;;5035169;28;20017;-73
2022/09/18 07:48:39;;;;;;;5.63;4.55;;;;;;;;;;5035306;28;20033;-73
2022/09/18 07:51:15;;;;;;;4.18;3.78;;;;;;;;;;5053006;28;20017;-73
2022/09/18 07:53:43;;;;;;;4.65;4.05;;;;;;;;;;5035016;28;20470;-73
2022/09/18 07:56:10;;;;;;;4.90;3.22;;;;;;;;;;5034735;28;20021;-74
2022/09/18 07:58:37;;;;;;;5.80;3.33;;;;;;;;;;5034853;28;20036;-74
2022/09/18 08:01:04;;;;;;;6.15;3.22;;;;;;;;;;5052942;28;20048;-74
2022/09/18 08:03:31;;;;;;;3.78;3.28;;;;;;;;;;5034960;28;20025;-74
2022/09/18 08:06:09;;;;;;;2.90;2.70;;;;;;;;;;5053118;28;20055;-74
2022/09/18 08:08:35;;;;;;;4.15;3.40;;;;;;;;;;5038012;28;20029;-73
2022/09/18 08:11:18;;;;;;;4.00;3.58;;;;;;;;;;5040468;28;20091;-73
2022/09/18 08:14:04;;;;;;;4.45;3.15;;;;;;;;;;5052524;28;20033;-73
2022/09/18 08:17:05;;;;;;;6.13;3.72;;;;;;;;;;5011119;28;20044;-73
2022/09/18 08:19:52;;;;;;;3.60;3.03;;;;;;;;;;5050251;28;20393;-73
2022/09/18 08:22:39;;;;;;;4.55;3.72;;;;;;;;;;5052897;28;20497;-73
2022/09/18 08:25:05;;;;;;;4.60;3.92;;;;;;;;;;5018166;28;20021;-74
2022/09/18 08:27:34;;;;;;;5.55;4.82;;;;;;;;;;5034944;28;20017;-74
2022/09/18 08:29:59;;;;;;;5.40;4.03;;;;;;;;;;5053914;28;20025;-73
2022/09/18 08:40:07;;;;;;;2.58;1.20;;;;;;;;;;5053747;28;20028;-73
2022/09/18 08:46:40;;;;;;;2.80;1.67;;;;;;;;;;5053929;28;20388;-74
2022/09/18 08:52:44;;;;;;;1.85;1.75;;;;;;;;;;5053872;28;20044;-75
2022/09/18 08:59:09;;;;;;;1.70;1.60;;;;;;;;;;5011883;28;20520;-70
2022/09/18 09:05:13;;;;;;;1.48;1.38;;;;;;;;;;5011900;28;20512;-72
2022/09/18 09:14:25;;;;;;;1.25;1.20;;;;;;;;;;5015387;28;20036;-72
2022/09/18 09:20:44;;;;;;;1.00;1.00;;;;;;;;;;5015487;28;20025;-72
2022/09/18 09:34:35;;;;;;;1.20;1.10;;;;;;;;;;5015019;28;20112;-72
2022/09/18 09:45:27;;;;;;;;;;;;;;;;;;4995992;28;20073;-72
2022/09/18 09:55:41;;;;;;;1.13;0.90;;;;;;;;;;4956696;29;20443;-72
2022/09/18 10:01:45;;;;;;;0.80;0.80;;;;;;;;;;4956650;29;20058;-72
2022/09/18 10:07:48;;;;;;;0.50;0.50;;;;;;;;;;4968866;28;20103;-71
2022/09/18 10:13:52;;;;;;;0.80;0.80;;;;;;;;;;5014378;28;20041;-72
2022/09/18 10:19:52;;;;;;;0.60;0.60;;;;;;;;;;5014404;28;20056;-72
2022/09/18 10:25:55;;;;;;;0.60;0.60;;;;;;;;;;5014596;28;20095;-72
2022/09/18 10:31:56;;;;;;;0.55;0.55;;;;;;;;;;5029944;28;20449;-71
2022/09/18 10:37:58;;;;;;;0.55;0.50;;;;;;;;;;5035697;28;20093;-71
2022/09/18 10:48:05;;;;;;;0.50;0.50;;;;;;;;;;5075874;28;20032;-72
2022/09/18 10:54:14;;;;;;;0.50;0.50;;;;;;;;;;5075463;28;20045;-70
2022/09/18 11:00:39;;;;;;;0.50;0.40;;;;;;;;;;5033466;28;20524;-69
2022/09/18 11:06:43;;;;;;;0.40;0.40;;;;;;;;;;5076218;28;20109;-70
2022/09/18 11:13:03;;;;;;;0.35;0.35;;;;;;;;;;5053129;28;20036;-70
2022/09/18 11:27:04;;;;;;;0.40;0.40;;;;;;;;;;5033000;28;20106;-70
2022/09/18 11:33:08;;;;;;;0.50;0.50;;;;;;;;;;5032735;28;20036;-70
2022/09/18 11:39:12;;;;;;;1.02;0.50;;;;;;;;;;5032687;28;20028;-69
2022/09/18 11:53:16;;;;;;;1.00;0.63;;;;;;;;;;5074356;28;20039;-69
2022/09/18 11:59:33;;;;;;;0.55;0.55;;;;;;;;;;5074333;28;20091;-69
2022/09/18 12:12:47;;;;;;;1.02;0.77;;;;;;;;;;5032176;28;20024;-69
2022/09/18 12:15:44;;;;;;;1.80;1.70;;;;;;;;;;5015348;28;20083;-68
2022/09/18 12:21:49;;;;;;;4.97;2.95;;;;;;;;;;5031795;28;20508;-69
2022/09/18 12:27:53;;;;;;;2.88;2.67;;;;;;;;;;5031908;28;20040;-68
2022/09/18 12:34:02;;;;;;;2.67;2.47;;;;;;;;;;5031646;28;20125;-68
2022/09/18 12:43:28;;;;;;;4.53;2.35;;;;;;;;;;5072549;28;20100;-69
2022/09/18 12:53:07;;;;;;;3.60;2.13;;;;;;;;;;5073562;28;20043;-68
2022/09/18 12:59:26;;;;;;;2.50;2.30;;;;;;;;;;5073387;28;20039;-69
2022/09/18 13:05:33;;;;;;;2.45;1.95;;;;;;;;;;5073553;28;20447;-68
2022/09/18 13:11:48;;;;;;;1.75;1.65;;;;;;;;;;5073480;28;20023;-68
2022/09/18 13:17:51;;;;;;;1.95;1.85;;;;;;;;;;5073449;28;20488;-68
2022/09/18 13:23:53;;;;;;;1.27;1.17;;;;;;;;;;5073190;28;20119;-72
2022/09/18 13:29:53;;;;;;;1.30;1.20;;;;;;;;;;5073357;28;20496;-72
2022/09/18 13:35:55;;;;;;;2.25;1.50;;;;;;;;;;5073287;28;20043;-72
2022/09/18 13:41:57;;;;;;;1.35;1.25;;;;;;;;;;5073254;28;20028;-72
2022/09/18 13:48:00;;;;;;;1.42;1.33;;;;;;;;;;5073177;28;20514;-72
2022/09/18 13:58:35;;;;;;;1.27;1.17;;;;;;;;;;5076727;28;20031;-72
2022/09/18 14:04:41;;;;;;;1.58;1.10;;;;;;;;;;5081405;28;20031;-73
2022/09/18 14:10:47;;;;;;;1.05;0.95;;;;;;;;;;5076482;28;20032;-72
2022/09/18 14:16:49;;;;;;;1.02;1.02;;;;;;;;;;5076305;28;20384;-71
2022/09/18 14:22:50;;;;;;;0.98;0.90;;;;;;;;;;5076289;28;20050;-71
2022/09/18 14:28:51;;;;;;;1.45;0.90;;;;;;;;;;5076091;28;20098;-71
2022/09/18 14:45:49;;;;;;;1.23;0.93;;;;;;;;;;5075766;28;20491;-71
2022/09/18 14:48:26;;;;;;;1.75;1.13;;;;;;;;;;5082102;22;20117;-71
2022/09/18 14:51:03;;;;;;;1.33;1.23;;;;;;;;;;5073599;28;20053;-71
2022/09/18 14:53:29;;;;;;;1.40;1.10;;;;;;;;;;5075529;28;20093;-71
2022/09/18 14:55:59;;;;;;;1.27;0.90;;;;;;;;;;5075157;28;20025;-71
2022/09/18 14:58:29;;;;;;;1.33;1.15;;;;;;;;;;5074917;28;20025;-71
2022/09/18 15:00:55;;;;;;;2.85;1.23;;;;;;;;;;5056926;28;20431;-71
2022/09/18 15:03:25;;;;;;;3.58;1.35;;;;;;;;;;5074767;28;20025;-71
2022/09/18 15:05:51;;;;;;;1.60;1.42;;;;;;;;;;5074035;28;20357;-71
2022/09/18 15:08:21;;;;;;;1.48;1.27;;;;;;;;;;5074832;28;20361;-71
2022/09/18 15:10:49;;;;;;;1.58;1.48;;;;;;;;;;5074978;28;20430;-71
2022/09/18 15:13:15;;;;;;;1.90;1.50;;;;;;;;;;5074498;28;20380;-71
2022/09/18 15:15:42;;;;;;;3.25;1.60;;;;;;;;;;5074633;28;20020;-71
2022/09/18 15:18:22;;;;;;;1.45;1.35;;;;;;;;;;5056285;28;20390;-71
2022/09/18 15:20:49;;;;;;;;;;;;;;;;;;5057053;28;20040;-72
2022/09/18 15:23:28;;;;;;;1.98;1.50;;;;;;;;;;5075290;28;19904;-71
2022/09/18 15:25:55;;;;;;;4.85;1.90;;;;;;;;;;5074988;28;20094;-71
2022/09/18 15:28:21;;;;;;;5.95;3.50;;;;;;;;;;5074881;28;20020;-72
2022/09/18 15:30:49;;;;;;;4.45;2.72;;;;;;;;;;5075141;28;20094;-71
2022/09/18 15:33:18;;;;;;;3.20;2.38;;;;;;;;;;5074185;28;20379;-71
2022/09/18 15:35:45;;;;;;;2.50;1.85;;;;;;;;;;5074482;28;20064;-72
2022/09/18 15:38:16;;;;;;;2.58;1.90;;;;;;;;;;5056899;28;20020;-72
2022/09/18 15:40:42;;;;;;;;;;;;;;;;;;5075078;28;20375;-72
2022/09/18 15:43:26;;;;;;;3.60;1.75;;;;;;;;;;5074370;28;19919;-71
2022/09/18 15:46:00;;;;;;;4.22;2.30;;;;;;;;;;5074846;28;20410;-71
2022/09/18 15:48:40;;;;;;;4.10;2.13;;;;;;;;;;5056141;28;20028;-69
2022/09/18 15:51:16;;;;;;;2.60;1.80;;;;;;;;;;5074795;28;20040;-71
2022/09/18 15:54:02;;;;;;;2.35;1.70;;;;;;;;;;5056619;28;20290;-71
2022/09/18 15:56:28;;;;;;;3.75;1.92;;;;;;;;;;5073611;28;20384;-71
2022/09/18 15:58:56;;;;;;;2.53;1.40;;;;;;;;;;5073982;28;20016;-71
2022/09/18 16:01:29;;;;;;;2.60;1.57;;;;;;;;;;5073758;28;20545;-71
2022/09/18 16:03:56;;;;;;;2.58;1.60;;;;;;;;;;5073338;28;20025;-71
2022/09/18 16:06:26;;;;;;;2.30;1.35;;;;;;;;;;5072858;28;20028;-69
2022/09/18 16:08:52;;;;;;;3.23;1.40;;;;;;;;;;5071994;28;20032;-69
2022/09/18 16:11:36;;;;;;;4.47;1.85;;;;;;;;;;5055490;28;20044;-69
2022/09/18 16:14:12;;;;;;;2.67;1.75;;;;;;;;;;5073609;28;20068;-69
2022/09/18 16:16:37;;;;;;;2.85;1.90;;;;;;;;;;5073016;28;20035;-68
2022/09/18 16:19:08;;;;;;;3.92;2.00;;;;;;;;;;5073263;28;20435;-68
2022/09/18 16:21:43;;;;;;;4.35;2.17;;;;;;;;;;5073576;28;20469;-71
2022/09/18 16:24:21;;;;;;;3.30;1.75;;;;;;;;;;5055489;28;20038;-70
2022/09/18 16:26:47;;;;;;;3.13;2.10;;;;;;;;;;5072145;28;20028;-68
2022/09/18 16:29:20;;;;;;;2.80;2.03;;;;;;;;;;5073607;28;20548;-68
2022/09/18 16:31:46;;;;;;;2.72;1.80;;;;;;;;;;5072219;28;20082;-68
2022/09/18 16:34:22;;;;;;;4.07;1.88;;;;;;;;;;5055144;28;20024;-68
2022/09/18 16:36:47;;;;;;;2.22;2.00;;;;;;;;;;5055583;28;20028;-68
2022/09/18 16:39:14;;;;;;;4.13;2.10;;;;;;;;;;5073293;28;20120;-69
2022/09/18 16:41:40;;;;;;;3.22;2.25;;;;;;;;;;5074758;28;20035;-69
2022/09/18 16:44:09;;;;;;;6.18;4.30;;;;;;;;;;5072782;28;20468;-69
2022/09/18 16:46:41;;;;;;;5.93;3.63;;;;;;;;;;5073759;28;20445;-69
2022/09/18 16:49:07;;;;;;;4.18;2.60;;;;;;;;;;5073061;28;20052;-68
2022/09/18 16:51:32;;;;;;;4.60;2.42;;;;;;;;;;5073010;28;20033;-69
2022/09/18 16:53:58;;;;;;;4.55;2.83;;;;;;;;;;5072429;28;20120;-69
2022/09/18 16:56:27;;;;;;;5.63;2.80;;;;;;;;;;5072279;28;20005;-68
2022/09/18 16:58:54;;;;;;;5.05;2.75;;;;;;;;;;5070537;28;20032;-69
2022/09/18 17:01:21;;;;;;;5.75;2.78;;;;;;;;;;5036625;28;20021;-69
2022/09/18 17:03:48;;;;;;;8.43;3.55;;;;;;;;;;5070445;28;20127;-69
2022/09/18 17:06:13;;;;;;;15.60;5.15;;;;;;;;;;5070262;28;20086;-69
2022/09/18 17:08:38;;;;;;;15.38;5.85;;;;;;;;;;5070911;28;20468;-69
2022/09/18 17:11:05;;;;;;;16.33;6.80;;;;;;;;;;5071499;28;20024;-68
2022/09/18 17:13:30;;;;;;;13.65;5.68;;;;;;;;;;5071458;28;20369;-69
2022/09/18 17:15:55;;;;;;;11.48;5.47;;;;;;;;;;5071603;28;20031;-69
2022/09/18 17:18:21;;;;;;;9.75;5.00;;;;;;;;;;5072278;28;20024;-69
2022/09/18 17:20:46;;;;;;;9.38;4.40;;;;;;;;;;5072051;28;20053;-69
2022/09/18 17:23:12;;;;;;;12.13;4.63;;;;;;;;;;5072081;28;20093;-69
2022/09/18 17:25:37;;;;;;;11.15;4.93;;;;;;;;;;5072095;28;20048;-69
2022/09/18 17:28:02;;;;;;;12.05;5.50;;;;;;;;;;5072018;28;20365;-69
2022/09/18 17:30:28;;;;;;;10.00;5.47;;;;;;;;;;5075235;28;20437;-69
2022/09/18 17:32:53;;;;;;;10.70;5.43;;;;;;;;;;5057615;28;20540;-69
2022/09/18 17:35:18;;;;;;;7.75;4.80;;;;;;;;;;5075698;28;20017;-69
2022/09/18 17:37:44;;;;;;;11.18;5.07;;;;;;;;;;5057326;28;20392;-69
2022/09/18 17:40:10;;;;;;;10.73;5.60;;;;;;;;;;5075087;28;20059;-71
2022/09/18 17:42:36;;;;;;;10.70;5.18;;;;;;;;;;5076320;28;20111;-71
2022/09/18 17:45:01;;;;;;;9.68;4.70;;;;;;;;;;5058430;28;20021;-71
2022/09/18 17:47:26;;;;;;;11.02;5.60;;;;;;;;;;5076283;28;20028;-71
2022/09/18 17:49:52;;;;;;;8.73;5.65;;;;;;;;;;5076030;28;20080;-71
2022/09/18 17:52:17;;;;;;;8.38;4.85;;;;;;;;;;5075993;28;20032;-71
2022/09/18 17:54:42;;;;;;;10.32;4.82;;;;;;;;;;5075779;28;20415;-71
2022/09/18 17:57:10;;;;;;;10.45;4.93;;;;;;;;;;5075700;28;20024;-72
2022/09/18 17:59:40;;;;;;;9.85;5.50;;;;;;;;;;5075926;28;20775;-71
2022/09/18 18:02:06;;;;;;;12.45;5.55;;;;;;;;;;5075159;28;20120;-72
2022/09/18 18:04:31;;;;;;;12.52;6.53;;;;;;;;;;5057958;28;20048;-72
2022/09/18 18:06:57;;;;;;;12.50;5.75;;;;;;;;;;5076024;28;20538;-72
2022/09/18 18:09:22;;;;;;;7.20;5.05;;;;;;;;;;5074305;28;20052;-72
2022/09/18 18:11:47;;;;;;;9.18;5.45;;;;;;;;;;5074084;28;20032;-71
2022/09/18 18:14:13;;;;;;;8.20;5.05;;;;;;;;;;5074910;28;20499;-71
2022/09/18 18:16:40;;;;;;;8.45;5.50;;;;;;;;;;5056977;28;20135;-71
2022/09/18 18:19:07;;;;;;;10.65;5.82;;;;;;;;;;5057007;28;20112;-72
2022/09/18 18:21:33;;;;;;;9.68;6.18;;;;;;;;;;5074765;28;20036;-71
2022/09/18 18:24:03;;;;;;;10.05;5.75;;;;;;;;;;5074786;28;20384;-71
2022/09/18 18:26:29;;;;;;;;;;;;;;;;;;5075232;28;20036;-72
2022/09/18 18:28:54;;;;;;;10.35;6.20;;;;;;;;;;5074982;28;19911;-72
2022/09/18 18:31:22;;;;;;;10.70;6.10;;;;;;;;;;5074712;28;20029;-71
2022/09/18 18:33:47;;;;;;;8.48;5.55;;;;;;;;;;5056442;28;20460;-72
2022/09/18 18:36:13;;;;;;;9.50;5.68;;;;;;;;;;5073010;28;20028;-72
2022/09/18 18:38:39;;;;;;;9.55;5.88;;;;;;;;;;5056678;28;20035;-72
2022/09/18 18:41:05;;;;;;;7.40;5.80;;;;;;;;;;5074637;28;20024;-72
2022/09/18 18:43:31;;;;;;;10.35;7.05;;;;;;;;;;5074147;28;20024;-72
2022/09/18 18:45:57;;;;;;;13.63;7.10;;;;;;;;;;5074302;28;20468;-72
2022/09/18 18:48:22;;;;;;;11.95;8.50;;;;;;;;;;5074129;28;20025;-72
2022/09/18 18:50:49;;;;;;;11.57;8.40;;;;;;;;;;5074310;28;20512;-72
2022/09/18 18:53:17;;;;;;;14.38;8.40;;;;;;;;;;5073940;28;20025;-72
2022/09/18 18:55:43;;;;;;;15.95;10.05;;;;;;;;;;5073921;28;20020;-72
2022/09/18 18:58:08;;;;;;;16.67;10.48;;;;;;;;;;5073902;28;20031;-72
2022/09/18 19:00:35;;;;;;;13.63;9.27;;;;;;;;;;5056181;28;20024;-72
2022/09/18 19:03:01;;;;;;;14.57;9.82;;;;;;;;;;5072875;28;20016;-72
2022/09/18 19:05:29;;;;;;;16.48;9.15;;;;;;;;;;5055821;28;20035;-69
2022/09/18 19:07:55;;;;;;;15.43;10.27;;;;;;;;;;5073932;28;20016;-70